Time;durP1;ratioP1;P1;durP2;ratioP2;P2;SDS_P1;SDS_P2;PMS_P1;PMS_P2;Temp;Humidity;BMP_temperature;BMP_pressure;BME280_temperature;BME280_humidity;BME280_pressure;Samples;Min_cycle;Max_cycle;Signal;HPM_P1;HPM_P2
2021/12/11 00:02:02;;;;;;;23.25;14.68;;;;;;;;;;5031812;28;43830;-84
2021/12/11 00:04:34;;;;;;;23.38;14.95;;;;;;;;;;5031182;28;45851;-84
2021/12/11 00:07:02;;;;;;;25.83;13.60;;;;;;;;;;5030645;28;48297;-83
2021/12/11 00:09:31;;;;;;;26.35;12.77;;;;;;;;;;5031625;28;44832;-83
2021/12/11 00:12:02;;;;;;;17.23;11.38;;;;;;;;;;5030952;28;46071;-83
2021/12/11 00:14:31;;;;;;;18.50;12.48;;;;;;;;;;5030841;28;44973;-84
2021/12/11 00:16:57;;;;;;;;;;;;;;;;;;5032843;28;46070;-83
2021/12/11 00:19:26;;;;;;;17.20;10.85;;;;;;;;;;5029862;28;45086;-83
2021/12/11 00:21:54;;;;;;;23.48;11.70;;;;;;;;;;5031274;28;42945;-83
2021/12/11 00:24:29;;;;;;;18.27;11.80;;;;;;;;;;5030533;28;45714;-83
2021/12/11 00:26:57;;;;;;;23.65;12.50;;;;;;;;;;5030611;28;46006;-84
2021/12/11 00:29:26;;;;;;;15.75;10.68;;;;;;;;;;5030239;28;44869;-83
2021/12/11 00:31:55;;;;;;;18.73;11.18;;;;;;;;;;5031394;28;43698;-83
2021/12/11 00:34:22;;;;;;;20.15;11.68;;;;;;;;;;5029840;28;45360;-83
2021/12/11 00:37:01;;;;;;;20.13;11.23;;;;;;;;;;5031224;28;45775;-83
2021/12/11 00:39:27;;;;;;;;;;;;;;;;;;5032055;28;45935;-83
2021/12/11 00:41:56;;;;;;;15.75;10.63;;;;;;;;;;5030725;28;43584;-84
2021/12/11 00:44:31;;;;;;;17.25;11.07;;;;;;;;;;5029786;28;44270;-84
2021/12/11 00:47:08;;;;;;;15.85;11.15;;;;;;;;;;5030235;28;43930;-85
2021/12/11 00:49:42;;;;;;;19.80;11.27;;;;;;;;;;5029833;28;43100;-85
2021/12/11 00:52:09;;;;;;;21.58;11.27;;;;;;;;;;5029928;28;44484;-84
2021/12/11 00:54:43;;;;;;;18.88;11.20;;;;;;;;;;5035624;28;44188;-86
2021/12/11 00:57:10;;;;;;;17.48;11.30;;;;;;;;;;5040881;28;43802;-86
2021/12/11 00:59:37;;;;;;;13.65;10.63;;;;;;;;;;5030908;28;45599;-85
2021/12/11 01:02:04;;;;;;;19.17;12.43;;;;;;;;;;5030517;28;43966;-85
2021/12/11 01:04:38;;;;;;;19.55;12.02;;;;;;;;;;5029972;28;45673;-85
2021/12/11 01:07:08;;;;;;;18.38;11.05;;;;;;;;;;5029945;28;46153;-85
2021/12/11 01:09:40;;;;;;;24.90;13.38;;;;;;;;;;5029794;28;42844;-84
2021/12/11 01:12:14;;;;;;;23.33;12.30;;;;;;;;;;5030940;28;45730;-85
2021/12/11 01:14:52;;;;;;;21.55;11.73;;;;;;;;;;5030399;28;44514;-84
2021/12/11 01:17:24;;;;;;;17.35;11.43;;;;;;;;;;5029803;28;46045;-84
2021/12/11 01:19:52;;;;;;;18.73;11.18;;;;;;;;;;5029813;28;44913;-84
2021/12/11 01:22:32;;;;;;;19.40;12.02;;;;;;;;;;5029706;28;43946;-83
2021/12/11 01:25:05;;;;;;;24.77;11.85;;;;;;;;;;5030162;28;44633;-85
2021/12/11 01:27:32;;;;;;;20.25;11.68;;;;;;;;;;5029981;28;45070;-84
2021/12/11 01:30:00;;;;;;;18.08;12.05;;;;;;;;;;5028712;28;42881;-84
2021/12/11 01:32:28;;;;;;;17.27;11.10;;;;;;;;;;5030683;28;43663;-85
2021/12/11 01:34:56;;;;;;;22.30;12.35;;;;;;;;;;5030522;28;20053;-85
2021/12/11 01:37:23;;;;;;;23.77;13.68;;;;;;;;;;5029978;28;43844;-84
2021/12/11 01:39:50;;;;;;;22.15;13.35;;;;;;;;;;5029761;28;46388;-84
2021/12/11 01:42:28;;;;;;;30.38;14.63;;;;;;;;;;5030335;28;43897;-84
2021/12/11 01:44:56;;;;;;;26.40;13.55;;;;;;;;;;5029273;28;45848;-85
2021/12/11 01:47:31;;;;;;;28.83;14.02;;;;;;;;;;5030599;28;43986;-85
2021/12/11 01:50:16;;;;;;;25.83;14.60;;;;;;;;;;5029638;28;44927;-84
2021/12/11 01:52:47;;;;;;;20.48;14.35;;;;;;;;;;5029521;28;46147;-84
2021/12/11 01:55:33;;;;;;;23.20;14.52;;;;;;;;;;5029102;28;46143;-84
2021/12/11 01:58:00;;;;;;;21.73;13.77;;;;;;;;;;5029237;28;44924;-85
2021/12/11 02:00:36;;;;;;;24.83;15.27;;;;;;;;;;5031486;28;20052;-84
2021/12/11 02:03:06;;;;;;;28.85;16.33;;;;;;;;;;5029228;28;43942;-84
2021/12/11 02:05:34;;;;;;;33.20;15.30;;;;;;;;;;5029578;28;43852;-85
2021/12/11 02:08:04;;;;;;;28.45;16.17;;;;;;;;;;5029540;28;43959;-85
2021/12/11 02:10:34;;;;;;;22.42;15.40;;;;;;;;;;5029524;28;44914;-85
2021/12/11 02:13:04;;;;;;;24.65;15.25;;;;;;;;;;5029125;28;45840;-85
2021/12/11 02:15:36;;;;;;;27.02;16.45;;;;;;;;;;5029915;28;43934;-85
2021/12/11 02:18:11;;;;;;;28.73;15.75;;;;;;;;;;5028143;28;42666;-84
2021/12/11 02:20:43;;;;;;;32.08;17.38;;;;;;;;;;5029006;28;44692;-85
2021/12/11 02:23:11;;;;;;;25.05;14.95;;;;;;;;;;5029612;28;45997;-84
2021/12/11 02:25:40;;;;;;;31.52;16.38;;;;;;;;;;5028874;28;43748;-84
2021/12/11 02:28:10;;;;;;;24.40;15.32;;;;;;;;;;5028786;28;46090;-85
2021/12/11 02:31:01;;;;;;;28.38;15.57;;;;;;;;;;5029011;28;42968;-86
2021/12/11 02:33:32;;;;;;;29.15;16.20;;;;;;;;;;5028253;28;43782;-86
2021/12/11 02:36:10;;;;;;;29.73;15.85;;;;;;;;;;5031156;28;20056;-86
2021/12/11 02:38:47;;;;;;;32.97;16.17;;;;;;;;;;5028699;28;45000;-85
2021/12/11 02:41:23;;;;;;;26.70;14.80;;;;;;;;;;5028287;28;45798;-84
2021/12/11 02:43:54;;;;;;;22.58;14.50;;;;;;;;;;5028522;28;46039;-85
2021/12/11 02:46:26;;;;;;;22.10;14.80;;;;;;;;;;5029575;28;37531;-84
2021/12/11 02:48:58;;;;;;;24.92;14.50;;;;;;;;;;5027860;28;44441;-85
2021/12/11 02:51:30;;;;;;;26.05;15.43;;;;;;;;;;5029061;28;45250;-85
2021/12/11 02:53:59;;;;;;;22.25;13.77;;;;;;;;;;5027366;28;45799;-85
2021/12/11 02:56:28;;;;;;;23.40;14.50;;;;;;;;;;5029064;28;43920;-85
2021/12/11 02:58:57;;;;;;;22.38;14.40;;;;;;;;;;5028134;28;44771;-85
2021/12/11 03:01:30;;;;;;;23.05;14.25;;;;;;;;;;5029265;28;20050;-85
2021/12/11 03:04:04;;;;;;;28.05;15.95;;;;;;;;;;5028136;28;43918;-85
2021/12/11 03:06:39;;;;;;;20.92;13.88;;;;;;;;;;5029558;28;42870;-85
2021/12/11 03:09:07;;;;;;;21.88;14.23;;;;;;;;;;5027576;28;46018;-85
2021/12/11 03:11:34;;;;;;;22.23;13.63;;;;;;;;;;5028914;28;43813;-85
2021/12/11 03:14:03;;;;;;;28.85;14.65;;;;;;;;;;5028511;28;44825;-85
2021/12/11 03:16:32;;;;;;;22.90;13.35;;;;;;;;;;5027954;28;45713;-85
2021/12/11 03:19:00;;;;;;;27.40;15.70;;;;;;;;;;5028173;28;44462;-85
2021/12/11 03:21:27;;;;;;;24.20;14.57;;;;;;;;;;5029163;28;44017;-84
2021/12/11 03:23:55;;;;;;;30.02;15.60;;;;;;;;;;5027385;28;43982;-84
2021/12/11 03:26:22;;;;;;;;;;;;;;;;;;5030094;28;44984;-85
2021/12/11 03:28:48;;;;;;;26.60;14.00;;;;;;;;;;5030012;28;43259;-85
2021/12/11 03:31:15;;;;;;;35.42;15.90;;;;;;;;;;5031312;28;43943;-85
2021/12/11 03:33:44;;;;;;;26.98;14.30;;;;;;;;;;5031793;28;44697;-86
2021/12/11 03:36:12;;;;;;;33.35;15.82;;;;;;;;;;5031579;28;46439;-84
2021/12/11 03:38:41;;;;;;;31.05;16.67;;;;;;;;;;5031804;28;44933;-85
2021/12/11 03:41:09;;;;;;;26.13;14.43;;;;;;;;;;5032387;28;45777;-84
2021/12/11 03:43:36;;;;;;;29.48;15.32;;;;;;;;;;5031069;28;20064;-85
2021/12/11 03:46:05;;;;;;;25.17;14.88;;;;;;;;;;5032076;28;43861;-85
2021/12/11 03:48:36;;;;;;;27.20;15.45;;;;;;;;;;5031590;28;43728;-85
2021/12/11 03:51:05;;;;;;;31.25;14.63;;;;;;;;;;5031675;28;45226;-85
2021/12/11 03:53:32;;;;;;;30.95;15.38;;;;;;;;;;5031381;28;43478;-85
2021/12/11 03:56:01;;;;;;;28.92;15.10;;;;;;;;;;5032299;28;43980;-85
2021/12/11 03:58:28;;;;;;;26.55;15.57;;;;;;;;;;5030448;28;41782;-84
2021/12/11 04:01:00;;;;;;;29.52;15.95;;;;;;;;;;5031732;28;45765;-85
2021/12/11 04:03:29;;;;;;;31.08;16.02;;;;;;;;;;5031072;28;46477;-85
2021/12/11 04:05:56;;;;;;;27.00;15.02;;;;;;;;;;5030707;28;43940;-85
2021/12/11 04:08:26;;;;;;;25.98;16.17;;;;;;;;;;5031622;28;44742;-84
2021/12/11 04:10:53;;;;;;;33.00;15.73;;;;;;;;;;5031608;28;43927;-85
2021/12/11 04:13:20;;;;;;;31.52;15.85;;;;;;;;;;5030810;28;20053;-85
2021/12/11 04:15:49;;;;;;;37.30;16.40;;;;;;;;;;5030718;28;45908;-86
2021/12/11 04:18:16;;;;;;;26.25;15.32;;;;;;;;;;5030797;28;20053;-87
2021/12/11 04:20:44;;;;;;;30.23;16.63;;;;;;;;;;5031027;28;44642;-87
2021/12/11 04:23:11;;;;;;;31.58;16.42;;;;;;;;;;5031339;28;46339;-87
2021/12/11 04:25:43;;;;;;;30.40;16.52;;;;;;;;;;5030471;28;43931;-89
2021/12/11 04:28:10;;;;;;;30.73;16.85;;;;;;;;;;5031025;28;40628;-88
2021/12/11 04:30:38;;;;;;;30.52;14.65;;;;;;;;;;5031278;28;44186;-89
2021/12/11 04:33:05;;;;;;;28.52;14.93;;;;;;;;;;5030145;28;43114;-88
2021/12/11 04:35:32;;;;;;;33.75;16.35;;;;;;;;;;5031216;28;45875;-89
2021/12/11 04:38:00;;;;;;;30.80;15.90;;;;;;;;;;5029565;28;42922;-89
2021/12/11 04:40:28;;;;;;;;;;;;;;;;;;5031362;28;45727;-89
2021/12/11 04:43:03;;;;;;;31.77;15.55;;;;;;;;;;5031270;28;44025;-90
2021/12/11 04:45:39;;;;;;;31.85;15.35;;;;;;;;;;5030733;28;43841;-88
2021/12/11 04:48:32;;;;;;;30.38;16.00;;;;;;;;;;5028996;28;44820;-88
2021/12/11 04:51:01;;;;;;;35.88;16.55;;;;;;;;;;5034704;28;44944;-90
2021/12/11 04:53:56;;;;;;;31.88;16.45;;;;;;;;;;5048910;28;43862;-90
2021/12/11 04:56:59;;;;;;;34.33;17.60;;;;;;;;;;5040492;28;44911;-88
2021/12/11 05:10:42;;;;;;;43.70;19.05;;;;;;;;;;5030849;28;44790;-88
2021/12/11 05:13:08;;;;;;;48.97;20.45;;;;;;;;;;5029941;28;45017;-88
2021/12/11 05:15:37;;;;;;;41.58;20.25;;;;;;;;;;5029256;28;42212;-88
2021/12/11 05:18:15;;;;;;;61.65;23.65;;;;;;;;;;5030264;28;45807;-88
2021/12/11 05:20:43;;;;;;;67.90;25.17;;;;;;;;;;5030655;28;46260;-89
2021/12/11 05:23:10;;;;;;;56.33;23.45;;;;;;;;;;5029742;28;44593;-89
2021/12/11 05:25:37;;;;;;;62.90;23.77;;;;;;;;;;5031294;28;45865;-89
2021/12/11 05:28:04;;;;;;;61.97;25.48;;;;;;;;;;5029605;28;41722;-89
2021/12/11 05:30:36;;;;;;;55.50;24.20;;;;;;;;;;5028356;28;44614;-90
2021/12/11 05:33:03;;;;;;;69.28;26.77;;;;;;;;;;5029724;28;43922;-87
2021/12/11 05:35:31;;;;;;;76.85;27.92;;;;;;;;;;5030168;28;44986;-88
2021/12/11 05:37:58;;;;;;;82.60;30.52;;;;;;;;;;5029814;28;45757;-90
2021/12/11 05:40:26;;;;;;;99.13;33.35;;;;;;;;;;5030410;28;46265;-90
2021/12/11 05:42:53;;;;;;;98.07;33.13;;;;;;;;;;5027820;28;45260;-89
2021/12/11 05:45:19;;;;;;;105.60;35.20;;;;;;;;;;5027729;28;46402;-89
2021/12/11 05:47:46;;;;;;;85.95;31.20;;;;;;;;;;5027808;28;44948;-90
2021/12/11 05:50:16;;;;;;;101.82;35.22;;;;;;;;;;5026852;28;45749;-90
2021/12/11 05:52:42;;;;;;;79.40;31.85;;;;;;;;;;5029658;28;45984;-89
2021/12/11 05:55:14;;;;;;;99.03;32.83;;;;;;;;;;5030034;28;42403;-91
2021/12/11 05:57:41;;;;;;;83.50;31.58;;;;;;;;;;5029098;28;43934;-91
2021/12/11 06:00:09;;;;;;;99.73;34.00;;;;;;;;;;5029488;28;45921;-91
2021/12/11 06:02:55;;;;;;;87.50;31.43;;;;;;;;;;5030231;28;44956;-92
2021/12/11 06:05:22;;;;;;;99.18;33.00;;;;;;;;;;5029882;28;42018;-90
2021/12/11 06:07:49;;;;;;;110.88;36.55;;;;;;;;;;5029614;28;43529;-91
2021/12/11 06:10:17;;;;;;;100.95;35.20;;;;;;;;;;5029084;28;45821;-91
2021/12/11 06:12:45;;;;;;;156.27;40.80;;;;;;;;;;5029364;28;44173;-91
2021/12/11 06:15:12;;;;;;;140.57;40.28;;;;;;;;;;5029135;28;44888;-90
2021/12/11 06:17:41;;;;;;;120.05;37.15;;;;;;;;;;5029699;28;43455;-92
2021/12/11 06:20:10;;;;;;;173.93;41.53;;;;;;;;;;5029412;28;45973;-91
2021/12/11 06:22:36;;;;;;;114.72;34.60;;;;;;;;;;5029710;28;43174;-91
2021/12/11 06:25:06;;;;;;;117.45;36.95;;;;;;;;;;5028558;28;45777;-92
2021/12/11 06:27:33;;;;;;;103.75;32.72;;;;;;;;;;5029889;28;46084;-90
2021/12/11 06:29:59;;;;;;;130.38;34.08;;;;;;;;;;5029025;28;45761;-91
2021/12/11 06:32:26;;;;;;;113.05;35.38;;;;;;;;;;5028485;28;43969;-92
2021/12/11 06:34:55;;;;;;;155.88;38.30;;;;;;;;;;5024925;28;45015;-86
2021/12/11 06:37:22;;;;;;;108.65;35.20;;;;;;;;;;5028552;28;44097;-86
2021/12/11 06:39:49;;;;;;;127.03;37.65;;;;;;;;;;5027675;28;45890;-88
2021/12/11 06:42:17;;;;;;;139.38;36.70;;;;;;;;;;5028768;28;45279;-86
2021/12/11 06:44:44;;;;;;;199.13;43.00;;;;;;;;;;5028101;28;44217;-86
2021/12/11 06:47:13;;;;;;;125.85;35.50;;;;;;;;;;5028123;28;46564;-86
2021/12/11 06:49:40;;;;;;;122.45;36.95;;;;;;;;;;5029069;28;44949;-87
2021/12/11 06:52:12;;;;;;;181.73;41.78;;;;;;;;;;5029131;28;46575;-87
2021/12/11 06:54:39;;;;;;;195.82;44.28;;;;;;;;;;5028159;28;45278;-87
2021/12/11 06:57:06;;;;;;;110.57;37.17;;;;;;;;;;5028937;28;43984;-87
2021/12/11 06:59:33;;;;;;;125.78;37.55;;;;;;;;;;5028654;28;45945;-87
2021/12/11 07:02:00;;;;;;;141.98;37.60;;;;;;;;;;5028093;28;43882;-87
2021/12/11 07:04:27;;;;;;;110.55;35.30;;;;;;;;;;5032632;28;44741;-87
2021/12/11 07:06:54;;;;;;;96.18;34.40;;;;;;;;;;5035300;28;44014;-86
2021/12/11 07:09:22;;;;;;;132.80;34.97;;;;;;;;;;5035128;28;42239;-87
2021/12/11 07:11:51;;;;;;;109.90;34.30;;;;;;;;;;5035519;28;43944;-88
2021/12/11 07:14:19;;;;;;;93.60;32.17;;;;;;;;;;5033935;28;42985;-86
2021/12/11 07:16:46;;;;;;;171.55;40.38;;;;;;;;;;5035650;28;43765;-87
2021/12/11 07:19:14;;;;;;;245.37;44.23;;;;;;;;;;5034539;28;43985;-87
2021/12/11 07:21:41;;;;;;;112.70;35.00;;;;;;;;;;5035093;28;36613;-87
2021/12/11 07:24:09;;;;;;;100.60;33.85;;;;;;;;;;5035107;28;45761;-87
2021/12/11 07:26:37;;;;;;;96.15;32.50;;;;;;;;;;5035623;28;44992;-88
2021/12/11 07:29:08;;;;;;;114.00;36.70;;;;;;;;;;5034001;28;44877;-87
2021/12/11 07:31:38;;;;;;;167.18;38.72;;;;;;;;;;5035751;28;45746;-91
2021/12/11 07:34:05;;;;;;;90.85;33.33;;;;;;;;;;5034984;28;43935;-87
2021/12/11 07:36:32;;;;;;;94.35;34.22;;;;;;;;;;5034796;28;45772;-86
2021/12/11 07:39:01;;;;;;;89.97;33.63;;;;;;;;;;5034458;28;46115;-87
2021/12/11 07:41:28;;;;;;;123.88;37.00;;;;;;;;;;5035360;28;43921;-87
2021/12/11 07:43:55;;;;;;;84.00;32.28;;;;;;;;;;5033863;28;45682;-86
2021/12/11 07:46:24;;;;;;;129.30;36.85;;;;;;;;;;5034776;28;43938;-86
2021/12/11 07:48:51;;;;;;;102.00;34.47;;;;;;;;;;5034650;28;44956;-87
2021/12/11 07:51:19;;;;;;;103.00;34.90;;;;;;;;;;5033816;28;45898;-86
2021/12/11 07:53:46;;;;;;;143.75;37.28;;;;;;;;;;5034901;28;43868;-85
2021/12/11 07:56:14;;;;;;;159.38;40.35;;;;;;;;;;5043015;28;45818;-86
2021/12/11 07:58:40;;;;;;;144.60;38.50;;;;;;;;;;5054423;28;46418;-89
2021/12/11 08:01:07;;;;;;;91.53;33.55;;;;;;;;;;5054476;28;45279;-88
2021/12/11 08:03:35;;;;;;;113.47;33.92;;;;;;;;;;5053450;28;45687;-87
2021/12/11 08:06:02;;;;;;;100.97;34.20;;;;;;;;;;5054682;28;44910;-88
2021/12/11 08:08:29;;;;;;;138.25;36.45;;;;;;;;;;5054148;28;42872;-89
2021/12/11 08:10:58;;;;;;;284.58;46.58;;;;;;;;;;5054082;28;43438;-88
2021/12/11 08:13:25;;;;;;;245.20;44.08;;;;;;;;;;5043703;28;45078;-88
2021/12/11 08:15:54;;;;;;;163.05;38.67;;;;;;;;;;5032589;28;43404;-89
2021/12/11 08:18:22;;;;;;;168.88;37.05;;;;;;;;;;5036288;28;43954;-89
2021/12/11 08:20:49;;;;;;;253.00;43.83;;;;;;;;;;5009902;28;44917;-89
2021/12/11 08:23:20;;;;;;;164.60;33.55;;;;;;;;;;5007737;28;43750;-89
2021/12/11 08:25:48;;;;;;;189.10;35.22;;;;;;;;;;5008082;28;45859;-86
2021/12/11 08:28:16;;;;;;;149.23;32.22;;;;;;;;;;5009422;28;42272;-86
2021/12/11 08:30:43;;;;;;;;;;;;;;;;;;5011422;28;43763;-86
2021/12/11 08:33:10;;;;;;;147.55;28.77;;;;;;;;;;5010440;28;45083;-86
2021/12/11 08:35:37;;;;;;;202.38;35.30;;;;;;;;;;5011772;28;43996;-87
2021/12/11 08:38:05;;;;;;;150.68;32.15;;;;;;;;;;5011336;28;44848;-91
2021/12/11 08:40:33;;;;;;;255.15;38.55;;;;;;;;;;5010890;28;44329;-88
2021/12/11 08:43:01;;;;;;;225.88;33.72;;;;;;;;;;5022081;28;45089;-86
2021/12/11 08:45:44;;;;;;;187.00;35.60;;;;;;;;;;5030677;28;45128;-86
2021/12/11 08:48:13;;;;;;;218.43;35.80;;;;;;;;;;5043987;28;45127;-88
2021/12/11 08:50:40;;;;;;;224.13;37.42;;;;;;;;;;5043215;28;44763;-83
2021/12/11 08:53:07;;;;;;;134.25;32.22;;;;;;;;;;5037290;28;20056;-90
2021/12/11 08:55:36;;;;;;;200.48;36.78;;;;;;;;;;5041961;28;44918;-90
2021/12/11 08:58:04;;;;;;;299.42;40.25;;;;;;;;;;5035905;28;45793;-89
2021/12/11 09:00:31;;;;;;;;;;;;;;;;;;5039312;28;44013;-89
2021/12/11 09:03:04;;;;;;;555.35;61.67;;;;;;;;;;5038251;28;44792;-90
2021/12/11 09:05:45;;;;;;;191.18;39.97;;;;;;;;;;5038756;28;46010;-90
2021/12/11 09:08:16;;;;;;;317.25;48.05;;;;;;;;;;5034654;28;45014;-89
2021/12/11 09:10:57;;;;;;;434.77;61.97;;;;;;;;;;5018779;28;44012;-89
2021/12/11 09:13:28;;;;;;;489.50;66.03;;;;;;;;;;5020194;28;43608;-90
2021/12/11 09:15:58;;;;;;;523.10;69.65;;;;;;;;;;5019918;28;45356;-91
2021/12/11 09:18:30;;;;;;;628.72;76.25;;;;;;;;;;5019188;28;43610;-91
2021/12/11 09:21:01;;;;;;;305.40;52.42;;;;;;;;;;5035355;28;44989;-91
2021/12/11 09:23:48;;;;;;;628.17;72.03;;;;;;;;;;5033791;28;45000;-90
2021/12/11 09:26:20;;;;;;;639.03;70.50;;;;;;;;;;5030716;28;45238;-90
2021/12/11 09:28:49;;;;;;;356.45;52.05;;;;;;;;;;5028497;28;44888;-90
2021/12/11 09:31:16;;;;;;;649.08;72.35;;;;;;;;;;5030948;28;45747;-92
2021/12/11 09:33:48;;;;;;;725.60;77.88;;;;;;;;;;5030403;28;43976;-89
2021/12/11 09:36:17;;;;;;;824.35;82.90;;;;;;;;;;5029642;28;43004;-87
2021/12/11 09:38:46;;;;;;;830.67;82.53;;;;;;;;;;5026984;28;45965;-88
2021/12/11 09:41:24;;;;;;;889.45;84.35;;;;;;;;;;5029156;28;46129;-89
2021/12/11 09:43:56;;;;;;;800.28;76.70;;;;;;;;;;5028500;28;43936;-88
2021/12/11 09:46:28;;;;;;;547.45;59.85;;;;;;;;;;5028500;28;45993;-88
2021/12/11 09:48:56;;;;;;;719.80;71.68;;;;;;;;;;5028100;28;44242;-87
2021/12/11 09:51:27;;;;;;;673.67;68.60;;;;;;;;;;5029213;28;45801;-88
2021/12/11 09:53:55;;;;;;;657.15;61.60;;;;;;;;;;5028038;28;43491;-89
2021/12/11 09:56:31;;;;;;;774.75;72.05;;;;;;;;;;5028288;28;42785;-88
2021/12/11 09:58:59;;;;;;;796.08;74.97;;;;;;;;;;5028321;28;43714;-87
2021/12/11 10:01:29;;;;;;;871.00;80.40;;;;;;;;;;5028600;28;46348;-81
2021/12/11 10:04:19;;;;;;;691.38;71.38;;;;;;;;;;5027257;28;44922;-85
2021/12/11 10:07:24;;;;;;;708.50;66.97;;;;;;;;;;5020115;28;45765;-87
2021/12/11 10:09:50;;;;;;;702.08;69.95;;;;;;;;;;5026320;28;44565;-87
2021/12/11 10:12:20;;;;;;;645.90;67.53;;;;;;;;;;5028206;28;44244;-89
2021/12/11 10:14:50;;;;;;;659.33;69.63;;;;;;;;;;5027288;28;46567;-88
2021/12/11 10:17:20;;;;;;;619.38;60.55;;;;;;;;;;5026467;28;42931;-89
2021/12/11 10:19:47;;;;;;;704.05;66.93;;;;;;;;;;5025734;28;43730;-88
2021/12/11 10:22:20;;;;;;;747.75;67.13;;;;;;;;;;5027215;28;43943;-88
2021/12/11 10:24:47;;;;;;;489.95;42.35;;;;;;;;;;5005914;28;45277;-88
2021/12/11 10:27:15;;;;;;;629.20;59.53;;;;;;;;;;5028537;28;44827;-89
2021/12/11 10:29:42;;;;;;;799.55;65.93;;;;;;;;;;5027450;28;43404;-88
2021/12/11 10:32:10;;;;;;;897.85;65.82;;;;;;;;;;5026777;28;44773;-88
2021/12/11 10:34:38;;;;;;;702.60;57.97;;;;;;;;;;5026569;28;43728;-89
2021/12/11 10:37:07;;;;;;;558.43;52.67;;;;;;;;;;5028025;28;44932;-90
2021/12/11 10:39:35;;;;;;;633.92;57.28;;;;;;;;;;5029896;28;44765;-89
2021/12/11 10:42:03;;;;;;;589.10;39.97;;;;;;;;;;5027475;28;46390;-89
2021/12/11 10:44:32;;;;;;;663.10;49.65;;;;;;;;;;5034599;28;45033;-89
2021/12/11 10:47:03;;;;;;;570.97;51.60;;;;;;;;;;5046322;28;45752;-89
2021/12/11 10:49:31;;;;;;;435.52;38.95;;;;;;;;;;5046930;28;44900;-88
2021/12/11 10:51:59;;;;;;;517.40;46.60;;;;;;;;;;5047371;28;44886;-88
2021/12/11 10:54:27;;;;;;;478.55;44.80;;;;;;;;;;5046120;28;43369;-90
2021/12/11 10:56:57;;;;;;;612.30;51.88;;;;;;;;;;5047329;28;44926;-91
2021/12/11 10:59:27;;;;;;;507.65;46.90;;;;;;;;;;5047239;28;45882;-94
2021/12/11 11:01:56;;;;;;;586.50;54.35;;;;;;;;;;5047243;28;46291;-85
2021/12/11 11:04:25;;;;;;;432.92;41.10;;;;;;;;;;5045918;28;42890;-88
2021/12/11 11:06:52;;;;;;;682.30;57.17;;;;;;;;;;5046483;28;43694;-88
2021/12/11 11:09:20;;;;;;;576.80;53.72;;;;;;;;;;5046832;28;46034;-90
2021/12/11 11:11:48;;;;;;;573.08;51.05;;;;;;;;;;5047109;28;42897;-89
2021/12/11 11:14:15;;;;;;;384.85;46.85;;;;;;;;;;5038924;28;45735;-89
2021/12/11 11:16:44;;;;;;;265.95;32.45;;;;;;;;;;5027113;28;43953;-90
2021/12/11 11:19:11;;;;;;;353.55;40.42;;;;;;;;;;5026520;28;44757;-89
2021/12/11 11:21:40;;;;;;;302.23;38.58;;;;;;;;;;5026451;28;45966;-89
2021/12/11 11:24:07;;;;;;;358.02;40.55;;;;;;;;;;5025505;28;42956;-90
2021/12/11 11:26:36;;;;;;;357.35;42.47;;;;;;;;;;5026378;28;43734;-89
2021/12/11 11:29:02;;;;;;;;;;;;;;;;;;5027036;28;44897;-89
2021/12/11 11:31:34;;;;;;;278.02;36.05;;;;;;;;;;5027398;28;44071;-89
2021/12/11 11:34:03;;;;;;;334.25;40.65;;;;;;;;;;5025998;28;44370;-89
2021/12/11 11:36:31;;;;;;;256.13;35.92;;;;;;;;;;5026085;28;42922;-89
2021/12/11 11:38:59;;;;;;;234.50;34.78;;;;;;;;;;5026299;28;43761;-89
2021/12/11 11:41:27;;;;;;;191.65;35.30;;;;;;;;;;5026095;28;46073;-89
2021/12/11 11:43:54;;;;;;;216.02;38.10;;;;;;;;;;5025877;28;43966;-89
2021/12/11 11:46:22;;;;;;;230.65;38.30;;;;;;;;;;5026471;28;45781;-88
2021/12/11 11:48:50;;;;;;;110.45;28.73;;;;;;;;;;5025062;28;45089;-88
2021/12/11 11:51:22;;;;;;;105.57;31.15;;;;;;;;;;5030112;28;43875;-89
2021/12/11 11:53:49;;;;;;;172.18;34.90;;;;;;;;;;5029559;28;44695;-88
2021/12/11 11:56:18;;;;;;;111.93;30.23;;;;;;;;;;5029303;28;43957;-89
2021/12/11 11:58:44;;;;;;;252.88;36.83;;;;;;;;;;5029037;28;44668;-88
2021/12/11 12:01:14;;;;;;;136.88;32.13;;;;;;;;;;5029160;28;43937;-84
2021/12/11 12:03:41;;;;;;;123.28;32.97;;;;;;;;;;5028813;28;43977;-88
2021/12/11 12:06:11;;;;;;;174.60;35.75;;;;;;;;;;5030092;28;45784;-87
2021/12/11 12:08:39;;;;;;;288.92;42.95;;;;;;;;;;5029266;28;46144;-90
2021/12/11 12:11:05;;;;;;;97.67;33.23;;;;;;;;;;5029844;28;44015;-92
2021/12/11 12:13:33;;;;;;;104.22;34.15;;;;;;;;;;5029210;28;46121;-92
2021/12/11 12:16:19;;;;;;;74.28;31.33;;;;;;;;;;5050109;28;43936;-91
2021/12/11 12:18:46;;;;;;;84.93;34.25;;;;;;;;;;5048939;28;42907;-90
2021/12/11 12:21:15;;;;;;;84.18;38.53;;;;;;;;;;5050400;28;45995;-90
2021/12/11 12:23:43;;;;;;;88.30;39.03;;;;;;;;;;5048601;28;42936;-90
2021/12/11 12:26:13;;;;;;;87.68;36.58;;;;;;;;;;5050379;28;46043;-91
2021/12/11 12:28:40;;;;;;;93.53;36.72;;;;;;;;;;5049102;28;44889;-91
2021/12/11 12:31:09;;;;;;;59.35;28.63;;;;;;;;;;5049768;28;44954;-89
2021/12/11 12:33:36;;;;;;;92.00;32.05;;;;;;;;;;5055697;28;20037;-91
2021/12/11 12:36:04;;;;;;;107.18;33.42;;;;;;;;;;5068996;28;44922;-91
2021/12/11 12:38:32;;;;;;;79.43;30.98;;;;;;;;;;5058462;28;43863;-90
2021/12/11 12:41:07;;;;;;;45.67;25.83;;;;;;;;;;5051158;28;45781;-85
2021/12/11 12:44:27;;;;;;;49.20;24.58;;;;;;;;;;5033884;28;43897;-89
2021/12/11 12:46:57;;;;;;;56.63;25.60;;;;;;;;;;5026442;28;46006;-92
2021/12/11 12:49:26;;;;;;;49.47;26.15;;;;;;;;;;5029009;28;46438;-87
2021/12/11 12:51:55;;;;;;;76.15;30.15;;;;;;;;;;5026554;28;42943;-87
2021/12/11 12:54:22;;;;;;;67.75;30.05;;;;;;;;;;5028418;28;44837;-86
2021/12/11 12:56:52;;;;;;;54.22;28.80;;;;;;;;;;5028939;28;44006;-85
2021/12/11 12:59:29;;;;;;;57.20;28.50;;;;;;;;;;5027959;28;42917;-87
2021/12/11 13:02:01;;;;;;;49.40;25.73;;;;;;;;;;5028417;28;44510;-90
2021/12/11 13:04:33;;;;;;;78.60;30.02;;;;;;;;;;5028570;28;43224;-87
2021/12/11 13:07:03;;;;;;;65.97;30.83;;;;;;;;;;5028361;28;44691;-87
2021/12/11 13:09:35;;;;;;;60.75;29.17;;;;;;;;;;5031453;28;45908;-88
2021/12/11 13:12:07;;;;;;;56.00;28.25;;;;;;;;;;5033941;28;43086;-90
2021/12/11 13:14:34;;;;;;;55.53;28.00;;;;;;;;;;5036233;28;45631;-88
2021/12/11 13:17:04;;;;;;;68.43;31.10;;;;;;;;;;5036014;28;46906;-89
2021/12/11 13:19:33;;;;;;;55.30;28.63;;;;;;;;;;5036129;28;45007;-87
2021/12/11 13:22:02;;;;;;;74.72;32.45;;;;;;;;;;5041234;28;45773;-88
2021/12/11 13:24:29;;;;;;;72.70;33.92;;;;;;;;;;5041876;28;45316;-86
2021/12/11 13:27:00;;;;;;;90.30;37.67;;;;;;;;;;5038363;28;35541;-87
2021/12/11 13:29:34;;;;;;;86.00;37.63;;;;;;;;;;5028217;28;20607;-88
2021/12/11 13:32:08;;;;;;;65.72;32.35;;;;;;;;;;5029259;28;44018;-89
2021/12/11 13:34:36;;;;;;;63.70;31.63;;;;;;;;;;5026958;28;44759;-89
2021/12/11 13:37:05;;;;;;;62.28;30.33;;;;;;;;;;5026176;28;45938;-88
2021/12/11 13:39:32;;;;;;;59.60;30.65;;;;;;;;;;5027473;28;43121;-88
2021/12/11 13:42:03;;;;;;;49.92;27.13;;;;;;;;;;5027421;28;45815;-89
2021/12/11 13:44:31;;;;;;;49.90;27.45;;;;;;;;;;5028412;28;20530;-85
2021/12/11 13:47:01;;;;;;;44.58;25.30;;;;;;;;;;5029862;28;44950;-86
2021/12/11 13:49:29;;;;;;;58.03;28.30;;;;;;;;;;5026346;28;44029;-86
2021/12/11 13:51:57;;;;;;;48.22;26.23;;;;;;;;;;5028499;28;43930;-86
2021/12/11 13:54:25;;;;;;;47.65;25.60;;;;;;;;;;5027543;28;44725;-88
2021/12/11 13:56:59;;;;;;;46.22;26.35;;;;;;;;;;5028026;28;44888;-87
2021/12/11 13:59:27;;;;;;;48.85;25.10;;;;;;;;;;5027134;28;45028;-86
2021/12/11 14:01:55;;;;;;;53.90;28.35;;;;;;;;;;5028620;28;20058;-86
2021/12/11 14:04:22;;;;;;;49.38;26.50;;;;;;;;;;5025817;28;43982;-88
2021/12/11 14:06:58;;;;;;;64.93;28.48;;;;;;;;;;5028254;28;44841;-81
2021/12/11 14:09:26;;;;;;;65.28;29.52;;;;;;;;;;5026619;28;45729;-80
2021/12/11 14:11:53;;;;;;;67.57;29.20;;;;;;;;;;5028658;28;44072;-83
2021/12/11 14:14:20;;;;;;;56.20;27.08;;;;;;;;;;5034555;28;43709;-88
2021/12/11 14:16:47;;;;;;;56.83;26.88;;;;;;;;;;5035528;28;46041;-86
2021/12/11 14:19:15;;;;;;;46.80;25.60;;;;;;;;;;5026599;28;42918;-86
2021/12/11 14:21:42;;;;;;;103.63;30.30;;;;;;;;;;5027780;28;45763;-87
2021/12/11 14:24:12;;;;;;;67.70;27.65;;;;;;;;;;5027833;28;20054;-86
2021/12/11 14:26:40;;;;;;;56.33;25.60;;;;;;;;;;5029023;28;20522;-87
2021/12/11 14:29:08;;;;;;;52.55;26.13;;;;;;;;;;5026581;28;44739;-86
2021/12/11 14:31:36;;;;;;;49.13;25.23;;;;;;;;;;5027469;28;43982;-86
2021/12/11 14:34:03;;;;;;;59.95;25.25;;;;;;;;;;5026916;28;45148;-87
2021/12/11 14:36:32;;;;;;;60.97;24.83;;;;;;;;;;5027945;28;44456;-87
2021/12/11 14:39:04;;;;;;;54.17;23.13;;;;;;;;;;5025200;28;43895;-89
2021/12/11 14:41:33;;;;;;;95.07;26.30;;;;;;;;;;5027496;28;43728;-89